Terminal Aerodrome Forecast
Issued by NWS Jacksonville, FL

Home | Current Version | Previous Version | Text Only | Print | Product List | Glossary On
Versions: 1 2 3 4 5 6 7 8 9 10 11 12 13 14 15 16 17 18 19 20 21 22 23 24 25 26 27 28
000
FTUS42 KJAX 072324
TAFGNV
TAF
KGNV 072324Z 0800/0824 VRB03KT P6SM FEW250
     FM080400 VRB02KT 6SM BR FEW005 SCT015
     FM080600 VRB02KT 2SM BR SCT005 BKN015
     FM080800 00000KT 1/2SM FG SCT001 OVC003
     FM081000 00000KT 1/4SM FG OVC001
     FM081300 33003KT 3SM BR SCT003 BKN007
     FM081400 34006KT P6SM FEW020 SCT250=

USA.gov is the U.S. government's official web portal to all federal, state and local government web resources and services.